Terminal Aerodrome Forecast
Issued by NWS

Home | Current Version | Previous Version | Graphics & Text | Print | Product List | Glossary On
Versions: 1 2 3 4 5 6 7 8 9 10 11 12 13 14 15 16 17 18 19 20 21 22 23 24 25 26 27
000
FTUS43 KLOT 150538
TAFDPA
TAF
KDPA 150538Z 1506/1606 17012KT 6SM -SHRA VCTS SCT020 SCT040
      BKN080CB
     FM150700 22013G20KT 5SM -SHRA BR SCT020 BKN040
     FM151115 28018G30KT P6SM VCSH OVC015
     FM151700 31017G26KT P6SM BKN030
     FM152000 32014G22KT P6SM BKN040
     FM152300 32010KT P6SM BKN050
     FM160300 29005KT P6SM SCT250=

USA.gov is the U.S. government's official web portal to all federal, state and local government web resources and services.